Accueil
METAR-TAF:

METAR-TAF

Aéroports :

Hill Air Force Base

Ogden, Utah, États-Unis

latitude: 41-07N, longitude: 111-58W, altitude: 1459 m

Observation

Le bulletin a été fait il y a 24 minutes, à 01:58 UTC
Vent 3 kt de est/nord-est
Température 2°C
Humidité 69%
Pression 1027 hPa
Visibilité: 16.1 km
Ciel clair

METAR: KHIF 170158Z AUTO 07003KT 10SM CLR 02/M03 A3034 RMK AO2 SLP284 T00191028

Heure: 19:22 (02:22 UTC)

Prévision

Le bulletin a été fait il y a 15 heures et 4 minutes, à 11:18 UTC
Prévision valable du 16 à 07 UTC au 17 à 04 UTC
Vent 6 kt de direction variable
Visibilité: 1914 m
Nuages fragmentés à une hauteur de 15000 ft

TAF: KHIF 161118Z 1607/1704 VRB06KT 9999 NSW BKN150 QNH3030INS TX04/1622Z TNM03/1614Z LAST NO AMDS AFT 1611 NEXT 1914

Observations et prévisions météorologiques de plus de 4000 aéroports (messages METAR et TAF).

Les stations disponibles sont représentées par des disques jaunes et rouges sur la carte.

Passer la souris dessus pour voir le nom de la station.

Cliquer dessus pour voir les observations et prévisions météorologiques.

Pour changer de carte: cliquez sur les boutons verts avec une croix noire pour zoomer, sur le bouton vert avec un tiret pour effectuer un zoom arrière, ou sur les flèches vertes pour les cartes adjacentes.


METAR-TAF: